Time;durP1;ratioP1;P1;durP2;ratioP2;P2;SDS_P1;SDS_P2;PMS_P1;PMS_P2;Temp;Humidity;BMP_temperature;BMP_pressure;BME280_temperature;BME280_humidity;BME280_pressure;Samples;Min_cycle;Max_cycle;Signal;HPM_P1;HPM_P2
2023/08/21 00:00:07;;;;;;;4.07;2.45;;;25.40;99.90;;;;;;4986477;28;20027;-62
2023/08/21 00:02:33;;;;;;;4.18;2.30;;;25.30;99.90;;;;;;4975690;28;20038;-62
2023/08/21 00:04:58;;;;;;;4.57;2.60;;;25.30;99.90;;;;;;4986630;28;20038;-62
2023/08/21 00:07:24;;;;;;;7.43;2.85;;;25.10;99.90;;;;;;4985895;28;20077;-62
2023/08/21 00:09:51;;;;;;;4.65;2.45;;;25.20;99.90;;;;;;4987016;28;20031;-62
2023/08/21 00:12:16;;;;;;;6.63;2.88;;;25.20;99.90;;;;;;4985021;28;20069;-62
2023/08/21 00:14:42;;;;;;;7.30;2.47;;;25.00;99.90;;;;;;4988694;28;20030;-62
2023/08/21 00:17:08;;;;;;;5.13;2.65;;;24.70;99.90;;;;;;4982992;28;20035;-62
2023/08/21 00:19:34;;;;;;;4.55;2.72;;;24.70;99.90;;;;;;4991504;28;20030;-62
2023/08/21 00:22:00;;;;;;;23.73;3.30;;;24.80;99.90;;;;;;4971650;28;20031;-62
2023/08/21 00:24:26;;;;;;;4.53;2.80;;;24.80;99.90;;;;;;4992445;28;20482;-62
2023/08/21 00:26:52;;;;;;;5.18;2.53;;;24.80;99.90;;;;;;4979349;28;20117;-62
2023/08/21 00:29:18;;;;;;;5.78;2.67;;;24.90;99.90;;;;;;4955124;29;20063;-62
2023/08/21 00:31:43;;;;;;;5.55;2.75;;;24.90;99.90;;;;;;4977401;28;20034;-62
2023/08/21 00:34:09;;;;;;;6.53;2.90;;;25.00;99.90;;;;;;4991434;28;20038;-62
2023/08/21 00:36:35;;;;;;;5.97;2.92;;;25.00;99.90;;;;;;4979920;28;20515;-62
2023/08/21 00:39:01;;;;;;;5.53;2.75;;;25.00;99.90;;;;;;4975878;28;20041;-64
2023/08/21 00:41:26;;;;;;;3.90;2.45;;;25.00;99.90;;;;;;4975777;28;20487;-62
2023/08/21 00:43:52;;;;;;;5.38;2.67;;;25.00;99.90;;;;;;4989034;28;20487;-62
2023/08/21 00:46:18;;;;;;;6.65;3.00;;;25.00;99.90;;;;;;4968502;28;20065;-62
2023/08/21 00:48:44;;;;;;;5.53;2.88;;;24.90;99.90;;;;;;4976216;28;20502;-62
2023/08/21 00:51:11;;;;;;;6.53;3.42;;;24.90;99.90;;;;;;4969262;28;20045;-62
2023/08/21 00:53:38;;;;;;;7.10;3.00;;;24.70;99.90;;;;;;4975069;28;20034;-62
2023/08/21 00:56:04;;;;;;;5.55;3.55;;;24.60;99.90;;;;;;4970226;28;20038;-62
2023/08/21 00:58:30;;;;;;;6.32;2.50;;;24.60;99.90;;;;;;4986736;28;20128;-62
2023/08/21 01:00:57;;;;;;;6.13;3.08;;;24.60;99.90;;;;;;4970949;28;20041;-62
2023/08/21 01:03:24;;;;;;;4.93;2.67;;;24.60;99.90;;;;;;4984624;28;20026;-62
2023/08/21 01:05:50;;;;;;;4.32;2.72;;;24.60;99.90;;;;;;4966640;28;20063;-62
2023/08/21 01:08:41;;;;;;;4.30;2.67;;;24.50;99.90;;;;;;4969238;28;20120;-62
2023/08/21 01:11:24;;;;;;;6.90;3.92;;;24.40;99.90;;;;;;4977632;28;20109;-61
2023/08/21 01:14:12;;;;;;;5.47;2.45;;;24.50;99.90;;;;;;4971274;28;20042;-62
2023/08/21 01:16:39;;;;;;;5.57;3.10;;;24.50;99.90;;;;;;4967471;28;20026;-62
2023/08/21 01:19:32;;;;;;;5.70;3.38;;;24.40;99.90;;;;;;4975259;28;20109;-62
2023/08/21 01:22:00;;;;;;;5.88;3.00;;;24.30;99.90;;;;;;4967936;28;20031;-65
2023/08/21 01:24:26;;;;;;;7.03;2.53;;;24.20;99.90;;;;;;4961894;28;20027;-63
2023/08/21 01:26:51;;;;;;;5.88;2.78;;;24.10;99.90;;;;;;4978081;28;20043;-63
2023/08/21 01:29:17;;;;;;;3.88;2.70;;;24.10;99.90;;;;;;4953758;29;20061;-62
2023/08/21 01:32:01;;;;;;;5.38;3.20;;;24.10;99.90;;;;;;4965611;28;20407;-63
2023/08/21 01:34:29;;;;;;;5.93;2.90;;;24.10;99.90;;;;;;4951479;28;20072;-63
2023/08/21 01:36:56;;;;;;;7.18;3.40;;;24.10;99.90;;;;;;4979729;28;20038;-62
2023/08/21 01:39:23;;;;;;;5.63;2.72;;;24.10;99.90;;;;;;4974972;28;20479;-62
2023/08/21 01:41:48;;;;;;;5.78;3.65;;;24.00;99.90;;;;;;4963252;28;20041;-62
2023/08/21 01:44:14;;;;;;;4.47;2.70;;;23.80;99.90;;;;;;4990590;23;20046;-64
2023/08/21 01:46:40;;;;;;;7.20;3.05;;;23.80;99.90;;;;;;4987324;28;20457;-64
2023/08/21 01:49:05;;;;;;;6.55;3.03;;;23.90;99.90;;;;;;4985444;28;20042;-66
2023/08/21 01:51:31;;;;;;;4.22;2.60;;;24.00;99.90;;;;;;4991800;28;20041;-66
2023/08/21 01:53:57;;;;;;;7.55;2.88;;;24.00;99.90;;;;;;4989909;28;20046;-64
2023/08/21 01:56:23;;;;;;;5.53;3.13;;;24.20;99.90;;;;;;4991814;28;20042;-67
2023/08/21 01:58:49;;;;;;;7.07;3.42;;;24.10;99.90;;;;;;4990427;28;20165;-67
2023/08/21 02:01:15;;;;;;;6.05;3.03;;;24.10;99.90;;;;;;4991548;28;20109;-67
2023/08/21 02:03:41;;;;;;;7.10;3.17;;;24.00;99.90;;;;;;4989635;28;20451;-66
2023/08/21 02:06:07;;;;;;;7.57;3.50;;;24.00;99.90;;;;;;4991331;28;20041;-66
2023/08/21 02:08:33;;;;;;;9.27;3.25;;;23.90;99.90;;;;;;4986879;28;20042;-67
2023/08/21 02:10:59;;;;;;;5.20;3.10;;;24.00;99.90;;;;;;4991201;28;20042;-66
2023/08/21 02:13:25;;;;;;;6.05;3.10;;;24.00;99.90;;;;;;4986822;28;20117;-66
2023/08/21 02:15:51;;;;;;;4.43;2.65;;;24.10;99.90;;;;;;4991405;28;20113;-66
2023/08/21 02:18:17;;;;;;;9.57;3.58;;;24.10;99.90;;;;;;4990322;28;20034;-66
2023/08/21 02:20:42;;;;;;;5.93;2.83;;;24.20;99.90;;;;;;4989100;28;20034;-66
2023/08/21 02:23:08;;;;;;;6.45;2.58;;;24.10;99.90;;;;;;4973147;28;20110;-66
2023/08/21 02:25:34;;;;;;;12.52;3.65;;;24.10;99.90;;;;;;4991361;28;20030;-66
2023/08/21 02:28:01;;;;;;;7.47;2.70;;;24.10;99.90;;;;;;4987311;28;20490;-66
2023/08/21 02:30:28;;;;;;;4.28;2.42;;;24.20;99.90;;;;;;4991356;28;20022;-66
2023/08/21 02:32:54;;;;;;;16.17;3.28;;;24.10;99.90;;;;;;4986106;28;20030;-66
2023/08/21 02:35:21;;;;;;;5.45;3.20;;;24.20;99.90;;;;;;4981683;28;20054;-66
2023/08/21 02:37:46;;;;;;;6.97;3.65;;;24.20;99.90;;;;;;4986636;28;20053;-66
2023/08/21 02:40:12;;;;;;;8.75;3.22;;;24.20;99.90;;;;;;4990457;28;20070;-66
2023/08/21 02:42:38;;;;;;;5.10;3.03;;;24.20;99.90;;;;;;4988216;28;20374;-66
2023/08/21 02:45:07;;;;;;;6.35;2.92;;;24.20;99.90;;;;;;4988994;28;20039;-66
2023/08/21 02:47:37;;;;;;;6.40;2.92;;;24.10;99.90;;;;;;4988375;28;20132;-66
2023/08/21 02:50:05;;;;;;;5.90;2.55;;;24.10;99.90;;;;;;4997886;28;20433;-66
2023/08/21 02:52:31;;;;;;;5.82;3.60;;;24.10;99.90;;;;;;4989053;28;20494;-66
2023/08/21 02:54:58;;;;;;;6.97;3.47;;;24.10;99.90;;;;;;4997395;28;20035;-66
2023/08/21 02:57:26;;;;;;;4.95;2.70;;;24.00;99.90;;;;;;4990608;28;20062;-66
2023/08/21 02:59:52;;;;;;;7.47;2.88;;;23.90;99.90;;;;;;4987782;28;20026;-66
2023/08/21 03:02:18;;;;;;;7.35;2.97;;;23.80;99.90;;;;;;4971075;28;20080;-66
2023/08/21 03:04:44;;;;;;;5.13;2.80;;;23.70;99.90;;;;;;4988964;28;20042;-66
2023/08/21 03:07:10;;;;;;;6.20;2.97;;;23.70;99.90;;;;;;4981413;28;20038;-66
2023/08/21 03:09:37;;;;;;;5.28;2.83;;;23.70;99.90;;;;;;4987125;28;20046;-66
2023/08/21 03:12:04;;;;;;;8.60;3.13;;;23.70;99.90;;;;;;4990822;28;20053;-65
2023/08/21 03:14:29;;;;;;;6.75;2.70;;;23.70;99.90;;;;;;4985674;28;20042;-66
2023/08/21 03:16:55;;;;;;;5.20;2.90;;;23.70;99.90;;;;;;4991000;28;20030;-66
2023/08/21 03:19:21;;;;;;;9.93;3.65;;;23.70;99.90;;;;;;4986473;28;20425;-66
2023/08/21 03:21:47;;;;;;;5.53;3.03;;;23.70;99.90;;;;;;4990755;28;20040;-66
2023/08/21 03:24:12;;;;;;;6.57;3.33;;;23.70;99.90;;;;;;4985694;28;20037;-66
2023/08/21 03:26:38;;;;;;;7.20;3.35;;;23.60;99.90;;;;;;4990674;28;20062;-65
2023/08/21 03:29:04;;;;;;;9.57;3.60;;;23.70;99.90;;;;;;4986463;28;20622;-66
2023/08/21 03:31:30;;;;;;;4.45;3.00;;;23.70;99.90;;;;;;4989164;28;20383;-66
2023/08/21 03:33:56;;;;;;;7.32;3.10;;;23.70;99.90;;;;;;4989478;28;20058;-65
2023/08/21 03:36:31;;;;;;;10.45;4.65;;;23.70;99.90;;;;;;4976990;28;20105;-65
2023/08/21 03:39:01;;;;;;;5.43;3.03;;;23.70;99.90;;;;;;4993172;28;20036;-65
2023/08/21 03:41:27;;;;;;;5.30;3.30;;;23.70;99.90;;;;;;4994328;28;20039;-65
2023/08/21 03:43:53;;;;;;;7.95;3.30;;;23.80;99.90;;;;;;4989651;28;20034;-66
2023/08/21 03:46:19;;;;;;;5.28;2.97;;;23.80;99.90;;;;;;4994315;28;20113;-65
2023/08/21 03:48:46;;;;;;;7.63;3.63;;;23.70;99.90;;;;;;4989850;28;20463;-65
2023/08/21 03:51:11;;;;;;;11.82;3.03;;;23.80;99.90;;;;;;4993954;28;20026;-65
2023/08/21 03:53:37;;;;;;;7.35;3.20;;;23.70;99.90;;;;;;4988092;28;20049;-65
2023/08/21 03:56:03;;;;;;;4.35;2.58;;;23.70;99.90;;;;;;4984770;28;20038;-65
2023/08/21 03:58:29;;;;;;;7.38;3.78;;;23.60;99.90;;;;;;4988372;28;20038;-65
2023/08/21 04:00:54;;;;;;;5.70;3.17;;;23.60;99.90;;;;;;4984576;28;20455;-66
2023/08/21 04:03:21;;;;;;;7.38;3.25;;;23.70;99.90;;;;;;4989709;28;20034;-64
2023/08/21 04:05:47;;;;;;;12.57;3.08;;;23.70;99.90;;;;;;4993568;28;20076;-64
2023/08/21 04:08:13;;;;;;;8.18;3.17;;;23.60;99.90;;;;;;4989751;28;20034;-64
2023/08/21 04:10:39;;;;;;;9.65;3.13;;;23.60;99.90;;;;;;4984181;28;20030;-65
2023/08/21 04:13:05;;;;;;;5.38;2.63;;;23.60;99.90;;;;;;4989379;28;20376;-64
2023/08/21 04:15:31;;;;;;;8.35;3.83;;;23.60;99.90;;;;;;4983953;28;20039;-65
2023/08/21 04:17:57;;;;;;;8.45;3.60;;;23.50;99.90;;;;;;4992416;28;20022;-64
2023/08/21 04:20:23;;;;;;;7.63;3.38;;;23.50;99.90;;;;;;4986330;28;20046;-64
2023/08/21 04:22:49;;;;;;;8.15;3.65;;;23.40;99.90;;;;;;4993280;28;20391;-64
2023/08/21 04:25:15;;;;;;;6.55;2.88;;;23.40;99.90;;;;;;4963079;28;20035;-64
2023/08/21 04:27:42;;;;;;;8.60;4.05;;;23.50;99.90;;;;;;4993622;28;20498;-64
2023/08/21 04:30:09;;;;;;;6.70;3.42;;;23.30;99.90;;;;;;4983523;28;20113;-70
2023/08/21 04:32:35;;;;;;;6.53;3.78;;;23.30;99.90;;;;;;4992508;28;20505;-70
2023/08/21 04:35:01;;;;;;;9.95;4.07;;;23.30;99.90;;;;;;4980403;28;20035;-70
2023/08/21 04:37:27;;;;;;;5.15;3.30;;;23.30;99.90;;;;;;4992895;28;20018;-70
2023/08/21 04:39:53;;;;;;;6.38;3.50;;;23.30;99.90;;;;;;4990101;28;20032;-70
2023/08/21 04:42:20;;;;;;;5.93;3.00;;;23.20;99.90;;;;;;4953295;28;20033;-70
2023/08/21 04:44:46;;;;;;;8.48;3.65;;;23.30;99.90;;;;;;4988862;28;20038;-70
2023/08/21 04:47:27;;;;;;;7.63;3.80;;;23.40;99.90;;;;;;4985987;28;20028;-70
2023/08/21 04:49:54;;;;;;;6.68;3.85;;;23.50;99.90;;;;;;4996364;28;20041;-70
2023/08/21 04:52:20;;;;;;;6.13;3.55;;;23.40;99.90;;;;;;4992513;28;20040;-70
2023/08/21 04:54:48;;;;;;;6.20;2.67;;;23.20;99.90;;;;;;4988735;28;20120;-70
2023/08/21 04:57:14;;;;;;;9.23;3.95;;;23.10;99.90;;;;;;4980336;28;20509;-70
2023/08/21 04:59:40;;;;;;;10.32;3.53;;;23.10;99.90;;;;;;4970585;28;20066;-70
2023/08/21 05:02:06;;;;;;;6.68;3.85;;;23.00;99.90;;;;;;4975426;28;20050;-70
2023/08/21 05:04:32;;;;;;;6.68;3.60;;;22.90;99.90;;;;;;4990876;28;20041;-70
2023/08/21 05:06:58;;;;;;;7.32;4.63;;;22.90;99.90;;;;;;4975694;28;20057;-71
2023/08/21 05:09:24;;;;;;;7.20;4.10;;;22.70;99.90;;;;;;4978285;28;20483;-70
2023/08/21 05:11:49;;;;;;;9.48;4.45;;;22.70;99.90;;;;;;4973644;28;20205;-67
2023/08/21 05:14:15;;;;;;;5.82;3.40;;;22.70;99.90;;;;;;4974113;28;20043;-70
2023/08/21 05:16:41;;;;;;;6.68;3.95;;;22.70;99.90;;;;;;4969426;28;20073;-70
2023/08/21 05:19:07;;;;;;;7.00;3.90;;;22.80;99.90;;;;;;4974676;28;20030;-69
2023/08/21 05:21:33;;;;;;;8.88;3.90;;;22.90;99.90;;;;;;4973130;28;20726;-68
2023/08/21 05:23:58;;;;;;;7.65;3.70;;;23.00;99.90;;;;;;4969935;28;20109;-68
2023/08/21 05:26:25;;;;;;;8.88;4.22;;;23.10;99.90;;;;;;4992149;28;20085;-66
2023/08/21 05:28:50;;;;;;;7.68;3.63;;;23.10;99.90;;;;;;4978339;28;20031;-63
2023/08/21 05:31:16;;;;;;;8.05;3.47;;;23.30;99.90;;;;;;4975037;28;20547;-66
2023/08/21 05:33:43;;;;;;;7.97;3.75;;;23.40;99.90;;;;;;4975517;28;20041;-66
2023/08/21 05:36:08;;;;;;;8.25;4.35;;;23.40;99.90;;;;;;4979401;28;20039;-66
2023/08/21 05:38:34;;;;;;;11.52;3.55;;;23.20;99.90;;;;;;4975657;28;20394;-63
2023/08/21 05:41:00;;;;;;;6.45;3.30;;;23.10;99.90;;;;;;4975947;28;20039;-62
2023/08/21 05:43:26;;;;;;;9.48;4.38;;;23.10;99.90;;;;;;4976162;28;20038;-62
2023/08/21 05:45:52;;;;;;;8.30;4.50;;;23.10;99.90;;;;;;4991440;28;20030;-65
2023/08/21 05:48:18;;;;;;;11.32;4.75;;;23.20;99.90;;;;;;4974134;28;20030;-65
2023/08/21 05:50:43;;;;;;;7.28;3.33;;;23.20;99.90;;;;;;4982152;28;20034;-65
2023/08/21 05:53:09;;;;;;;6.57;3.83;;;23.20;99.90;;;;;;4988094;28;20038;-66
2023/08/21 05:55:37;;;;;;;6.82;3.25;;;23.40;99.90;;;;;;4990954;28;20038;-66
2023/08/21 05:58:03;;;;;;;9.13;4.10;;;23.50;99.90;;;;;;4988347;28;20121;-66
2023/08/21 06:00:29;;;;;;;7.57;3.83;;;23.70;99.90;;;;;;4991452;28;20026;-64
2023/08/21 06:02:54;;;;;;;6.90;3.70;;;23.90;99.90;;;;;;4987358;28;20046;-65
2023/08/21 06:05:20;;;;;;;6.45;4.07;;;24.00;99.90;;;;;;4982418;28;20048;-66
2023/08/21 06:07:46;;;;;;;6.18;4.05;;;24.20;99.90;;;;;;4987834;28;20065;-65
2023/08/21 06:10:12;;;;;;;9.52;4.05;;;24.00;99.90;;;;;;4990911;28;21289;-65
2023/08/21 06:12:41;;;;;;;8.75;3.78;;;24.10;99.90;;;;;;4972423;28;20034;-65
2023/08/21 06:15:08;;;;;;;5.57;3.10;;;24.10;99.90;;;;;;4998243;28;20406;-65
2023/08/21 06:17:35;;;;;;;9.00;4.05;;;24.20;99.90;;;;;;4989244;28;20026;-66
2023/08/21 06:20:01;;;;;;;11.23;3.63;;;24.40;99.90;;;;;;4989383;28;20038;-72
2023/08/21 06:22:26;;;;;;;5.85;3.15;;;24.50;99.90;;;;;;4991300;28;20439;-73
2023/08/21 06:24:52;;;;;;;7.88;3.55;;;24.80;99.90;;;;;;4981458;28;20506;-72
2023/08/21 06:27:18;;;;;;;7.07;3.80;;;24.70;99.90;;;;;;4991410;28;20042;-73
2023/08/21 06:29:44;;;;;;;6.35;3.20;;;24.80;99.90;;;;;;4987837;28;20048;-64
2023/08/21 06:32:09;;;;;;;5.85;3.03;;;24.80;99.90;;;;;;4991471;28;20038;-63
2023/08/21 06:34:35;;;;;;;5.85;3.50;;;24.80;99.90;;;;;;4985138;28;20073;-64
2023/08/21 06:37:01;;;;;;;10.65;3.90;;;24.80;99.90;;;;;;4991134;28;20077;-63
2023/08/21 06:39:26;;;;;;;5.38;3.22;;;24.70;99.90;;;;;;4990256;28;20030;-63
2023/08/21 06:41:53;;;;;;;9.73;3.88;;;24.60;99.90;;;;;;4977074;28;20102;-63
2023/08/21 06:44:20;;;;;;;7.88;3.28;;;24.60;99.90;;;;;;4988024;28;20045;-63
2023/08/21 06:46:46;;;;;;;5.35;3.10;;;24.40;99.90;;;;;;4979415;28;20027;-62
2023/08/21 06:49:11;;;;;;;7.55;3.42;;;24.30;99.90;;;;;;4990392;28;20027;-63
2023/08/21 06:51:37;;;;;;;8.88;3.75;;;24.20;99.90;;;;;;4987191;28;20510;-63
2023/08/21 06:54:03;;;;;;;8.43;4.00;;;24.30;99.90;;;;;;4986744;28;20100;-63
2023/08/21 06:56:29;;;;;;;7.47;3.50;;;24.30;99.90;;;;;;4989295;28;20038;-63
2023/08/21 06:58:55;;;;;;;8.48;3.80;;;24.30;99.90;;;;;;4970887;28;20375;-63
2023/08/21 07:01:21;;;;;;;7.10;3.50;;;24.40;99.90;;;;;;4989209;28;20030;-63
2023/08/21 07:03:47;;;;;;;5.53;3.65;;;24.40;99.90;;;;;;4984450;28;20034;-64
2023/08/21 07:06:13;;;;;;;7.03;2.88;;;24.30;99.90;;;;;;4980172;28;20520;-62
2023/08/21 07:08:40;;;;;;;7.10;3.95;;;24.40;99.90;;;;;;4971767;28;20038;-62
2023/08/21 07:11:10;;;;;;;8.18;3.65;;;24.20;99.90;;;;;;5012684;28;20030;-62
2023/08/21 07:13:36;;;;;;;6.47;3.67;;;24.30;99.90;;;;;;4991568;28;20053;-63
2023/08/21 07:16:03;;;;;;;7.22;3.70;;;24.50;99.90;;;;;;5001476;28;20038;-63
2023/08/21 07:18:35;;;;;;;5.88;3.10;;;24.60;99.90;;;;;;5004538;28;20060;-63
2023/08/21 07:21:04;;;;;;;7.68;3.22;;;24.80;99.90;;;;;;5013413;28;20026;-63
2023/08/21 07:23:31;;;;;;;6.90;3.63;;;24.80;99.90;;;;;;5007860;28;20056;-63
2023/08/21 07:25:58;;;;;;;5.53;3.35;;;24.80;99.90;;;;;;5013440;28;20049;-63
2023/08/21 07:28:24;;;;;;;6.80;3.55;;;24.90;99.90;;;;;;5006208;28;20034;-63
2023/08/21 07:31:00;;;;;;;5.90;3.45;;;24.90;99.90;;;;;;5013924;28;20560;-63
2023/08/21 07:33:27;;;;;;;7.07;3.35;;;24.90;99.90;;;;;;5005953;28;20437;-62
2023/08/21 07:36:03;;;;;;;6.97;3.55;;;25.00;99.90;;;;;;5013974;28;20041;-62
2023/08/21 07:38:30;;;;;;;5.97;3.88;;;25.10;99.90;;;;;;5009049;28;20037;-62
2023/08/21 07:41:10;;;;;;;5.43;3.22;;;25.20;99.90;;;;;;5011214;28;20038;-62
2023/08/21 07:43:45;;;;;;;6.93;3.20;;;25.30;99.90;;;;;;5002919;28;20108;-62
2023/08/21 07:46:18;;;;;;;9.20;3.70;;;25.40;99.90;;;;;;5020714;23;20030;-65
2023/08/21 07:48:46;;;;;;;7.78;3.63;;;25.50;99.90;;;;;;4981142;28;20153;-66
2023/08/21 07:51:13;;;;;;;8.52;3.22;;;25.50;99.90;;;;;;4991164;28;20470;-66
2023/08/21 07:53:39;;;;;;;6.07;3.40;;;25.50;99.90;;;;;;4979366;28;20069;-66
2023/08/21 07:56:05;;;;;;;5.88;3.22;;;25.60;99.90;;;;;;4974963;28;20033;-65
2023/08/21 07:58:32;;;;;;;7.72;3.67;;;25.70;99.90;;;;;;4951362;28;20035;-65
2023/08/21 08:00:58;;;;;;;7.72;3.28;;;25.80;99.90;;;;;;4989864;28;20110;-65
2023/08/21 08:03:25;;;;;;;6.93;4.20;;;25.80;99.90;;;;;;4966045;28;20614;-65
2023/08/21 08:05:51;;;;;;;6.43;3.83;;;25.80;99.90;;;;;;4990130;28;20038;-66
2023/08/21 08:08:17;;;;;;;9.80;3.70;;;25.90;99.90;;;;;;4981308;28;20030;-65
2023/08/21 08:10:44;;;;;;;6.78;3.75;;;26.00;99.90;;;;;;4971748;28;20041;-65
2023/08/21 08:13:09;;;;;;;6.72;3.88;;;25.80;99.90;;;;;;4948587;28;20030;-65
2023/08/21 08:15:35;;;;;;;7.60;2.95;;;26.00;99.90;;;;;;4988033;28;20046;-65
2023/08/21 08:18:03;;;;;;;6.38;3.38;;;26.20;99.90;;;;;;4966039;28;20214;-65
2023/08/21 08:20:30;;;;;;;5.78;3.20;;;26.30;99.90;;;;;;4987195;28;20042;-66
2023/08/21 08:22:56;;;;;;;7.38;3.22;;;26.40;99.90;;;;;;4978421;28;20502;-65
2023/08/21 08:25:22;;;;;;;5.00;2.78;;;26.20;99.90;;;;;;4981364;28;20122;-66
2023/08/21 08:27:48;;;;;;;5.47;2.85;;;26.40;99.90;;;;;;4967747;28;20034;-66
2023/08/21 08:30:15;;;;;;;5.50;3.35;;;26.60;99.90;;;;;;4985159;28;20031;-66
2023/08/21 08:32:45;;;;;;;5.68;3.30;;;26.60;99.90;;;;;;4950802;28;20089;-65
2023/08/21 08:35:13;;;;;;;6.05;2.80;;;26.80;99.90;;;;;;4969401;28;20035;-67
2023/08/21 08:37:41;;;;;;;6.30;2.92;;;26.90;99.90;;;;;;4945906;28;20559;-51
2023/08/21 08:40:08;;;;;;;5.53;2.88;;;26.90;99.90;;;;;;4971483;28;20479;-65
2023/08/21 08:42:35;;;;;;;6.18;2.88;;;27.10;99.90;;;;;;4978215;28;20081;-65
2023/08/21 08:45:03;;;;;;;5.82;2.80;;;27.10;99.90;;;;;;4970199;28;20035;-66
2023/08/21 08:47:34;;;;;;;5.35;2.92;;;27.30;99.90;;;;;;4970400;28;20498;-66
2023/08/21 08:50:03;;;;;;;3.75;2.30;;;27.40;99.90;;;;;;4971340;28;20121;-65
2023/08/21 08:52:35;;;;;;;5.88;3.13;;;27.60;99.90;;;;;;4963758;28;20049;-66
2023/08/21 08:55:01;;;;;;;9.68;3.58;;;27.70;99.90;;;;;;4972282;28;20066;-66
2023/08/21 08:57:26;;;;;;;7.93;4.15;;;27.80;99.90;;;;;;4977062;28;20533;-65
2023/08/21 08:59:52;;;;;;;6.65;3.28;;;27.90;99.90;;;;;;4975301;28;20026;-66
2023/08/21 09:02:18;;;;;;;6.90;3.08;;;27.80;99.90;;;;;;4976443;28;20112;-66
2023/08/21 09:04:43;;;;;;;6.20;3.45;;;27.90;99.90;;;;;;4984617;28;20544;-66
2023/08/21 09:07:11;;;;;;;6.75;3.15;;;27.90;99.90;;;;;;4976699;28;20149;-66
2023/08/21 09:09:44;;;;;;;5.35;3.17;;;28.10;99.90;;;;;;4969216;28;20495;-66
2023/08/21 09:12:14;;;;;;;4.60;2.58;;;28.20;99.90;;;;;;4973505;28;20125;-66
2023/08/21 09:14:41;;;;;;;6.15;3.17;;;28.40;99.90;;;;;;4966598;28;20041;-66
2023/08/21 09:17:08;;;;;;;8.10;3.13;;;28.50;99.90;;;;;;4968261;28;20039;-66
2023/08/21 09:19:34;;;;;;;6.20;2.72;;;28.60;99.90;;;;;;4965645;28;20085;-66
2023/08/21 09:22:18;;;;;;;5.03;3.03;;;28.70;99.90;;;;;;4958431;28;20034;-64
2023/08/21 09:25:06;;;;;;;5.28;2.58;;;28.80;99.90;;;;;;4960176;28;20497;-65
2023/08/21 09:27:38;;;;;;;5.90;3.20;;;28.90;99.90;;;;;;4972548;28;20103;-65
2023/08/21 09:30:05;;;;;;;5.93;2.75;;;29.00;99.90;;;;;;4964737;28;20049;-65
2023/08/21 09:32:51;;;;;;;6.72;2.88;;;29.00;99.90;;;;;;4962721;28;20026;-66
2023/08/21 09:35:17;;;;;;;4.55;2.63;;;29.10;99.90;;;;;;4988989;28;20427;-72
2023/08/21 09:37:47;;;;;;;5.05;2.83;;;29.20;99.90;;;;;;4961189;28;20023;-64
2023/08/21 09:40:12;;;;;;;5.03;2.20;;;29.30;99.90;;;;;;4953482;28;20514;-65
2023/08/21 09:42:39;;;;;;;4.72;2.45;;;29.50;99.90;;;;;;4956403;28;20042;-66
2023/08/21 09:45:06;;;;;;;5.40;2.42;;;29.50;99.90;;;;;;4971305;28;20035;-66
2023/08/21 09:47:33;;;;;;;3.75;2.47;;;29.60;99.90;;;;;;4991621;28;20093;-65
2023/08/21 09:50:00;;;;;;;6.53;2.58;;;29.70;99.90;;;;;;4969816;28;20046;-67
2023/08/21 09:52:26;;;;;;;4.07;2.33;;;29.90;99.90;;;;;;4984490;28;20042;-65
2023/08/21 09:54:55;;;;;;;5.18;2.47;;;30.20;99.90;;;;;;4966938;28;20043;-65
2023/08/21 09:57:22;;;;;;;3.60;1.95;;;30.40;99.90;;;;;;4948631;28;20035;-65
2023/08/21 09:59:54;;;;;;;3.67;1.98;;;30.50;99.90;;;;;;4953319;28;20034;-65
2023/08/21 10:02:24;;;;;;;6.78;2.13;;;30.70;99.90;;;;;;4956280;28;20038;-65
2023/08/21 10:04:51;;;;;;;3.50;1.90;;;30.70;99.50;;;;;;4951389;28;20062;-65
2023/08/21 10:07:25;;;;;;;7.05;2.25;;;30.90;99.40;;;;;;4955732;28;20126;-65
2023/08/21 10:09:51;;;;;;;3.72;1.85;;;31.10;99.40;;;;;;4952636;28;20031;-64
2023/08/21 10:12:19;;;;;;;3.90;2.05;;;31.10;99.30;;;;;;4939315;28;20125;-65
2023/08/21 10:14:45;;;;;;;5.10;2.20;;;31.20;99.10;;;;;;4939999;28;20074;-65
2023/08/21 10:17:11;;;;;;;5.80;2.40;;;31.10;98.60;;;;;;4950173;28;20442;-65
2023/08/21 10:19:36;;;;;;;3.80;2.25;;;31.30;98.70;;;;;;4978065;28;20101;-67
2023/08/21 10:22:03;;;;;;;3.17;1.60;;;31.40;98.30;;;;;;4965162;28;20042;-64
2023/08/21 10:24:37;;;;;;;5.30;1.98;;;31.30;98.50;;;;;;4964717;28;20031;-64
2023/08/21 10:27:03;;;;;;;5.75;1.90;;;31.30;98.40;;;;;;4958185;28;20042;-64
2023/08/21 10:29:31;;;;;;;3.90;2.10;;;31.20;97.70;;;;;;4954040;28;20043;-64
2023/08/21 10:32:04;;;;;;;4.30;1.77;;;31.20;97.30;;;;;;4957033;28;20110;-64
2023/08/21 10:34:37;;;;;;;3.47;1.95;;;31.20;97.60;;;;;;4983536;28;20117;-65
2023/08/21 10:37:12;;;;;;;4.00;2.22;;;31.50;97.00;;;;;;4960772;28;20031;-64
2023/08/21 10:39:56;;;;;;;3.70;1.50;;;31.60;97.80;;;;;;4956660;28;20427;-64
2023/08/21 10:42:39;;;;;;;3.97;1.95;;;31.80;97.30;;;;;;4965893;28;20031;-65
2023/08/21 10:45:13;;;;;;;3.50;1.58;;;32.20;97.50;;;;;;4954057;28;20035;-64
2023/08/21 10:47:38;;;;;;;2.67;1.35;;;32.50;95.30;;;;;;4965109;28;20047;-63
2023/08/21 10:50:07;;;;;;;3.22;2.17;;;32.50;95.30;;;;;;4971816;28;20045;-64
2023/08/21 10:52:41;;;;;;;3.92;1.63;;;32.60;95.10;;;;;;4965552;28;20030;-65
2023/08/21 10:55:11;;;;;;;3.00;1.70;;;32.90;95.00;;;;;;4973809;28;20046;-66
2023/08/21 10:57:38;;;;;;;4.35;1.60;;;33.10;94.80;;;;;;4956808;28;20057;-64
2023/08/21 11:00:12;;;;;;;4.78;1.80;;;33.10;94.90;;;;;;4973852;28;20082;-64
2023/08/21 11:02:41;;;;;;;4.60;1.83;;;32.70;95.60;;;;;;4972443;28;20393;-65
2023/08/21 11:05:09;;;;;;;4.25;2.08;;;32.70;95.20;;;;;;4979130;28;20398;-64
2023/08/21 11:07:41;;;;;;;4.22;1.80;;;33.20;95.00;;;;;;4963482;28;20491;-65
2023/08/21 11:10:09;;;;;;;3.75;1.55;;;33.30;94.30;;;;;;4968654;28;20491;-65
2023/08/21 11:12:35;;;;;;;3.33;2.00;;;33.70;94.40;;;;;;4960339;28;20120;-64
2023/08/21 11:15:04;;;;;;;4.18;1.88;;;33.90;94.40;;;;;;4952418;28;20743;-66
2023/08/21 11:17:29;;;;;;;2.75;1.67;;;33.50;94.40;;;;;;4956313;28;20061;-66
2023/08/21 11:20:00;;;;;;;2.00;1.45;;;33.60;94.20;;;;;;4979036;28;20506;-67
2023/08/21 11:22:32;;;;;;;4.00;1.70;;;34.00;93.90;;;;;;4973734;28;20046;-66
2023/08/21 11:24:58;;;;;;;3.17;1.75;;;34.30;93.40;;;;;;4962609;28;20058;-65
2023/08/21 11:27:24;;;;;;;2.47;1.58;;;34.40;93.00;;;;;;4970707;28;20549;-64
2023/08/21 11:29:51;;;;;;;4.45;1.67;;;34.50;92.60;;;;;;4968809;28;20041;-64
2023/08/21 11:32:23;;;;;;;2.83;1.60;;;34.40;92.80;;;;;;4982230;28;20043;-64
2023/08/21 11:34:54;;;;;;;8.75;2.00;;;33.90;93.50;;;;;;4981846;28;20031;-64
2023/08/21 11:37:23;;;;;;;4.40;2.30;;;34.10;92.90;;;;;;4979431;28;20106;-64
2023/08/21 11:39:51;;;;;;;3.95;1.90;;;33.40;93.50;;;;;;4969672;28;20038;-63
2023/08/21 11:42:19;;;;;;;3.70;1.90;;;33.50;94.30;;;;;;4971029;28;20034;-63
2023/08/21 11:44:52;;;;;;;4.20;2.17;;;33.40;94.40;;;;;;4968292;28;20035;-63
2023/08/21 11:47:21;;;;;;;3.83;1.60;;;33.70;94.10;;;;;;4963666;28;20034;-63
2023/08/21 11:49:49;;;;;;;3.70;2.17;;;34.30;93.20;;;;;;4937212;28;20460;-63
2023/08/21 11:52:20;;;;;;;8.27;1.80;;;34.80;92.10;;;;;;4923396;28;20030;-63
2023/08/21 11:54:49;;;;;;;6.97;2.08;;;35.10;90.80;;;;;;4967929;28;20038;-63
2023/08/21 11:57:16;;;;;;;3.45;1.65;;;34.40;90.90;;;;;;4931730;28;20031;-64
2023/08/21 11:59:42;;;;;;;3.13;1.35;;;34.90;91.10;;;;;;4952286;28;20027;-62
2023/08/21 12:02:27;;;;;;;2.70;1.85;;;34.80;90.50;;;;;;4965370;28;20373;-64
2023/08/21 12:05:05;;;;;;;4.15;2.15;;;34.70;90.10;;;;;;4948852;28;20035;-62
2023/08/21 12:07:34;;;;;;;2.90;1.52;;;34.60;90.60;;;;;;4968967;28;20031;-63
2023/08/21 12:10:00;;;;;;;3.15;2.10;;;35.00;90.20;;;;;;4969932;28;20030;-63
2023/08/21 12:12:26;;;;;;;3.83;1.98;;;34.80;90.70;;;;;;4963461;28;20438;-63
2023/08/21 12:14:52;;;;;;;2.88;1.45;;;34.40;91.80;;;;;;4959081;28;20039;-63
2023/08/21 12:17:18;;;;;;;2.20;1.20;;;34.40;90.20;;;;;;4967480;28;20454;-63
2023/08/21 12:19:44;;;;;;;2.72;1.75;;;34.20;90.80;;;;;;4964671;28;20042;-62
2023/08/21 12:22:10;;;;;;;4.85;2.22;;;34.80;90.20;;;;;;4965884;28;20038;-63
2023/08/21 12:24:36;;;;;;;3.13;1.60;;;35.10;88.20;;;;;;4962123;28;20038;-64
2023/08/21 12:27:04;;;;;;;3.72;1.42;;;35.50;86.90;;;;;;4965354;28;20019;-64
2023/08/21 12:29:29;;;;;;;2.47;1.70;;;36.00;86.00;;;;;;4958524;28;20034;-64
2023/08/21 12:31:55;;;;;;;2.58;1.23;;;36.30;84.20;;;;;;4956095;28;20038;-64
2023/08/21 12:34:21;;;;;;;5.63;2.28;;;37.00;82.90;;;;;;4956536;28;20038;-63
2023/08/21 12:36:47;;;;;;;2.63;1.50;;;37.10;83.10;;;;;;4949299;28;20019;-64
2023/08/21 12:39:15;;;;;;;2.17;1.33;;;37.10;81.20;;;;;;4969848;28;20031;-64
2023/08/21 12:41:41;;;;;;;3.55;1.08;;;36.30;81.50;;;;;;4964632;28;20483;-63
2023/08/21 12:44:08;;;;;;;2.20;1.02;;;36.70;80.60;;;;;;4972566;28;20074;-63
2023/08/21 12:46:35;;;;;;;3.35;1.40;;;36.10;80.70;;;;;;4972495;28;20126;-63